Time;durP1;ratioP1;P1;durP2;ratioP2;P2;SDS_P1;SDS_P2;PMS_P1;PMS_P2;Temp;Humidity;BMP_temperature;BMP_pressure;BME280_temperature;BME280_humidity;BME280_pressure;Samples;Min_cycle;Max_cycle;Signal;HPM_P1;HPM_P2
2022/07/25 00:00:34;;;;;;;8.13;6.35;;;28.70;59.80;;;;;;5076613;28;20393;-75
2022/07/25 00:03:00;;;;;;;5.93;5.53;;;28.60;60.00;;;;;;5094803;28;20080;-76
2022/07/25 00:05:26;;;;;;;6.13;5.60;;;28.60;60.20;;;;;;5044501;22;20053;-78
2022/07/25 00:07:51;;;;;;;6.50;5.28;;;28.60;60.40;;;;;;5074249;28;20508;-77
2022/07/25 00:10:17;;;;;;;5.68;5.18;;;28.50;60.50;;;;;;5074333;28;20024;-77
2022/07/25 00:12:44;;;;;;;5.97;5.47;;;28.50;60.80;;;;;;5074383;28;20474;-78
2022/07/25 00:15:11;;;;;;;5.90;5.38;;;28.50;61.10;;;;;;5072888;28;20078;-78
2022/07/25 00:17:36;;;;;;;6.07;5.68;;;28.40;61.20;;;;;;5075761;28;20020;-78
2022/07/25 00:20:04;;;;;;;5.60;5.20;;;28.50;61.40;;;;;;5072820;28;20477;-77
2022/07/25 00:22:29;;;;;;;6.28;5.68;;;28.50;61.40;;;;;;5072799;28;20508;-78
2022/07/25 00:24:55;;;;;;;6.47;5.32;;;28.50;61.40;;;;;;5072852;28;20024;-78
2022/07/25 00:27:21;;;;;;;5.97;5.53;;;28.60;61.40;;;;;;5074069;28;20029;-78
2022/07/25 00:29:47;;;;;;;5.57;5.18;;;28.50;61.40;;;;;;5073841;28;20035;-76
2022/07/25 00:32:13;;;;;;;6.22;5.72;;;28.40;61.40;;;;;;5072830;28;20119;-76
2022/07/25 00:34:38;;;;;;;6.60;5.85;;;28.40;61.80;;;;;;5073971;28;20024;-76
2022/07/25 00:37:04;;;;;;;6.65;6.15;;;28.40;62.10;;;;;;5072596;28;20024;-75
2022/07/25 00:39:30;;;;;;;5.97;5.57;;;28.30;62.30;;;;;;5070675;28;20065;-76
2022/07/25 00:41:56;;;;;;;5.63;5.15;;;28.30;62.30;;;;;;5073698;28;20017;-75
2022/07/25 00:44:29;;;;;;;5.60;5.20;;;28.30;62.50;;;;;;5073846;28;20024;-76
2022/07/25 00:46:56;;;;;;;5.97;5.47;;;28.30;62.90;;;;;;5073756;28;20099;-76
2022/07/25 00:49:22;;;;;;;6.53;5.90;;;28.30;63.10;;;;;;5073662;28;20107;-76
2022/07/25 00:51:49;;;;;;;6.93;5.72;;;28.30;63.20;;;;;;5072355;28;20028;-75
2022/07/25 00:56:43;;;;;;;7.20;5.75;;;28.20;63.40;;;;;;5032196;28;20048;-78
2022/07/25 00:59:10;;;;;;;6.40;5.82;;;28.20;63.80;;;;;;5032346;28;20025;-78
2022/07/25 01:01:37;;;;;;;6.85;6.22;;;28.20;63.90;;;;;;5032153;28;20021;-76
2022/07/25 01:04:03;;;;;;;6.35;5.65;;;28.10;64.00;;;;;;5033557;28;20108;-77
2022/07/25 01:06:29;;;;;;;9.13;5.75;;;28.10;64.20;;;;;;5034646;28;20104;-77
2022/07/25 01:08:55;;;;;;;6.18;5.57;;;28.20;64.20;;;;;;5032706;28;20128;-77
2022/07/25 01:11:22;;;;;;;5.85;5.45;;;28.10;64.10;;;;;;5034641;28;20030;-77
2022/07/25 01:13:48;;;;;;;5.90;5.40;;;28.10;64.40;;;;;;5033459;28;20040;-77
2022/07/25 01:16:13;;;;;;;7.22;5.25;;;28.10;64.60;;;;;;5034601;28;20017;-77
2022/07/25 01:18:39;;;;;;;6.70;6.20;;;28.10;64.60;;;;;;5033285;28;20083;-77
2022/07/25 01:21:06;;;;;;;6.43;5.82;;;28.10;64.80;;;;;;5034511;28;20049;-77
2022/07/25 01:23:31;;;;;;;6.35;5.78;;;28.10;65.00;;;;;;5033248;28;20095;-77
2022/07/25 01:25:57;;;;;;;6.68;5.82;;;28.10;65.10;;;;;;5034406;28;20441;-76
2022/07/25 01:28:23;;;;;;;6.00;5.53;;;28.10;65.30;;;;;;5034230;28;20467;-77
2022/07/25 01:30:49;;;;;;;5.97;5.28;;;28.10;65.10;;;;;;5032894;28;20045;-77
2022/07/25 01:33:16;;;;;;;6.93;5.60;;;28.10;65.30;;;;;;5033842;28;20037;-77
2022/07/25 01:35:43;;;;;;;5.80;5.30;;;28.10;65.30;;;;;;5032673;28;20032;-77
2022/07/25 01:38:09;;;;;;;6.18;5.75;;;28.10;65.30;;;;;;5033819;28;20036;-77
2022/07/25 01:40:35;;;;;;;6.78;6.28;;;28.00;65.30;;;;;;5033644;28;20100;-77
2022/07/25 01:43:00;;;;;;;7.43;5.80;;;28.00;65.60;;;;;;5033800;28;20090;-77
2022/07/25 01:45:26;;;;;;;6.78;6.22;;;28.00;65.70;;;;;;5032940;28;20029;-77
2022/07/25 01:47:52;;;;;;;5.90;5.40;;;28.00;66.00;;;;;;5032679;28;20036;-77
2022/07/25 01:50:18;;;;;;;6.50;5.85;;;27.90;66.30;;;;;;5032951;28;20463;-77
2022/07/25 01:52:43;;;;;;;8.63;6.85;;;27.90;66.50;;;;;;5032869;28;20056;-77
2022/07/25 01:55:09;;;;;;;9.93;5.85;;;27.80;67.00;;;;;;5032582;28;20495;-77
2022/07/25 01:57:36;;;;;;;6.75;5.95;;;27.80;67.10;;;;;;5032674;28;20088;-78
2022/07/25 02:00:07;;;;;;;6.50;6.00;;;27.80;67.20;;;;;;5032497;28;20333;-77
2022/07/25 02:02:33;;;;;;;6.95;6.30;;;27.90;67.20;;;;;;5032658;28;20137;-77
2022/07/25 02:04:58;;;;;;;6.15;5.65;;;27.80;67.30;;;;;;5032398;28;20557;-77
2022/07/25 02:07:24;;;;;;;7.35;5.68;;;27.80;68.00;;;;;;5031985;28;20035;-78
2022/07/25 02:09:50;;;;;;;6.45;5.90;;;27.80;68.20;;;;;;5035156;22;20045;-77
2022/07/25 02:12:16;;;;;;;6.43;5.93;;;27.80;68.10;;;;;;5052115;28;20035;-77
2022/07/25 02:14:41;;;;;;;5.75;5.35;;;27.80;68.00;;;;;;5050914;28;20063;-78
2022/07/25 02:17:07;;;;;;;5.90;5.35;;;27.80;68.00;;;;;;5051863;28;20033;-77
2022/07/25 02:19:33;;;;;;;6.43;5.90;;;27.70;68.20;;;;;;5051907;28;20032;-77
2022/07/25 02:21:59;;;;;;;6.25;5.72;;;27.70;68.40;;;;;;5049673;28;20474;-77
2022/07/25 02:24:25;;;;;;;6.38;5.78;;;27.70;68.80;;;;;;5050549;28;20300;-78
2022/07/25 02:26:51;;;;;;;6.07;5.50;;;27.70;69.60;;;;;;5052015;28;20424;-77
2022/07/25 02:29:16;;;;;;;6.53;5.93;;;27.80;68.60;;;;;;5050377;28;20025;-77
2022/07/25 02:31:42;;;;;;;6.47;5.88;;;27.70;68.80;;;;;;5051772;28;20021;-77
2022/07/25 02:34:08;;;;;;;8.43;6.07;;;27.70;68.90;;;;;;5051175;28;20087;-75
2022/07/25 02:36:34;;;;;;;5.85;5.45;;;27.70;69.30;;;;;;5051728;28;20027;-75
2022/07/25 02:38:59;;;;;;;7.47;6.30;;;27.60;69.60;;;;;;5051622;28;20025;-75
2022/07/25 02:41:25;;;;;;;6.18;5.60;;;27.50;69.70;;;;;;5050401;28;20427;-75
2022/07/25 02:43:51;;;;;;;6.47;5.63;;;27.50;70.10;;;;;;5050264;28;20286;-76
2022/07/25 02:46:17;;;;;;;6.57;5.90;;;27.60;70.10;;;;;;5051539;28;20029;-76
2022/07/25 02:48:42;;;;;;;6.18;5.68;;;27.60;70.50;;;;;;5051541;28;20044;-75
2022/07/25 02:51:08;;;;;;;6.03;5.50;;;27.70;71.10;;;;;;5051379;28;20507;-75
2022/07/25 02:53:34;;;;;;;7.28;6.57;;;27.60;71.00;;;;;;5051661;28;20526;-75
2022/07/25 02:56:00;;;;;;;11.25;6.18;;;27.60;70.80;;;;;;5051489;28;20385;-75
2022/07/25 02:58:25;;;;;;;8.05;5.95;;;27.50;70.80;;;;;;5041511;28;20395;-75
2022/07/25 03:00:51;;;;;;;7.93;6.22;;;27.60;71.20;;;;;;5077623;22;20494;-75
2022/07/25 03:03:17;;;;;;;6.60;6.00;;;27.50;71.40;;;;;;5091478;28;20107;-75
2022/07/25 03:05:43;;;;;;;11.55;6.55;;;27.50;71.40;;;;;;5090362;28;20030;-75
2022/07/25 03:08:09;;;;;;;8.20;5.93;;;27.50;71.90;;;;;;5091726;28;20058;-75
2022/07/25 03:10:35;;;;;;;6.90;6.30;;;27.30;72.20;;;;;;5090391;28;20024;-76
2022/07/25 03:13:01;;;;;;;7.65;6.68;;;27.30;72.70;;;;;;5091630;28;20138;-75
2022/07/25 03:15:27;;;;;;;8.82;7.10;;;27.30;72.90;;;;;;5091679;28;20493;-75
2022/07/25 03:17:53;;;;;;;8.70;7.80;;;27.20;73.00;;;;;;5091357;28;20028;-75
2022/07/25 03:20:18;;;;;;;11.25;7.38;;;27.20;73.20;;;;;;5091616;28;20360;-76
2022/07/25 03:22:44;;;;;;;9.30;7.60;;;27.20;73.00;;;;;;5090320;28;20507;-76
2022/07/25 03:25:10;;;;;;;8.20;7.38;;;27.30;73.10;;;;;;5091355;28;20032;-75
2022/07/25 03:27:36;;;;;;;8.07;7.38;;;27.30;73.00;;;;;;5091610;28;20060;-75
2022/07/25 03:30:02;;;;;;;7.28;6.68;;;27.30;73.40;;;;;;5091734;28;20024;-75
2022/07/25 03:32:28;;;;;;;8.15;7.15;;;27.20;73.50;;;;;;5092351;28;20020;-75
2022/07/25 03:34:54;;;;;;;8.07;7.38;;;27.30;73.70;;;;;;5094180;28;20077;-75
2022/07/25 03:37:20;;;;;;;8.63;7.07;;;27.20;73.80;;;;;;5095312;28;20507;-76
2022/07/25 03:39:45;;;;;;;8.40;6.82;;;27.20;73.70;;;;;;5095283;28;20484;-75
2022/07/25 03:42:11;;;;;;;7.00;6.32;;;27.20;73.90;;;;;;5095310;28;20024;-75
2022/07/25 03:44:37;;;;;;;7.22;6.63;;;27.20;74.00;;;;;;5094119;28;20111;-75
2022/07/25 03:47:04;;;;;;;8.95;7.13;;;27.20;74.10;;;;;;5094920;28;20026;-75
2022/07/25 03:49:30;;;;;;;9.07;5.93;;;27.20;74.20;;;;;;5095106;28;20032;-75
2022/07/25 03:51:55;;;;;;;11.95;7.30;;;27.20;74.20;;;;;;5097883;22;20055;-78
2022/07/25 03:54:21;;;;;;;7.97;7.18;;;27.10;74.30;;;;;;5094931;28;20039;-78
2022/07/25 03:56:48;;;;;;;7.57;6.82;;;27.00;74.70;;;;;;5095077;28;20032;-78
2022/07/25 03:59:17;;;;;;;10.00;7.07;;;27.00;75.00;;;;;;5094543;28;20028;-78
2022/07/25 04:01:44;;;;;;;7.47;6.47;;;27.00;75.30;;;;;;5094788;28;20026;-78
2022/07/25 04:04:10;;;;;;;7.90;6.93;;;26.90;75.60;;;;;;5094713;28;20069;-78
2022/07/25 04:06:36;;;;;;;7.88;6.65;;;27.00;75.70;;;;;;5076421;28;20032;-78
2022/07/25 04:09:03;;;;;;;7.50;6.55;;;27.00;75.60;;;;;;5094143;28;20112;-78
2022/07/25 04:11:29;;;;;;;7.88;6.95;;;27.00;75.60;;;;;;5076220;28;20020;-77
2022/07/25 04:13:56;;;;;;;6.63;6.03;;;27.00;76.10;;;;;;5093734;28;20043;-77
2022/07/25 04:16:22;;;;;;;7.03;6.38;;;27.00;75.60;;;;;;5094443;28;20074;-77
2022/07/25 04:18:49;;;;;;;9.95;6.95;;;27.00;75.40;;;;;;5094133;28;20020;-77
2022/07/25 04:21:14;;;;;;;8.82;7.47;;;27.00;75.40;;;;;;5094540;28;20032;-77
2022/07/25 04:23:40;;;;;;;7.80;6.78;;;27.00;75.40;;;;;;5076206;28;20024;-77
2022/07/25 04:26:06;;;;;;;7.30;6.63;;;27.00;75.40;;;;;;5094339;28;20039;-78
2022/07/25 04:28:32;;;;;;;8.35;7.30;;;27.00;75.70;;;;;;5094100;28;20024;-78
2022/07/25 04:30:58;;;;;;;8.65;7.85;;;27.00;75.80;;;;;;5086861;28;20028;-78
2022/07/25 04:33:24;;;;;;;7.60;6.93;;;27.00;75.50;;;;;;5094433;28;20023;-77
2022/07/25 04:35:50;;;;;;;10.32;7.50;;;27.00;75.40;;;;;;5094250;28;20021;-78
2022/07/25 04:38:16;;;;;;;7.10;6.50;;;27.00;75.60;;;;;;5094207;28;20389;-77
2022/07/25 04:43:20;;;;;;;7.97;7.20;;;27.00;75.80;;;;;;5019421;22;20042;-76
2022/07/25 04:45:46;;;;;;;8.90;6.97;;;27.00;75.70;;;;;;4982103;28;20029;-76
2022/07/25 04:48:12;;;;;;;7.68;6.82;;;27.00;75.80;;;;;;5000776;28;20042;-75
2022/07/25 04:50:39;;;;;;;10.07;6.97;;;27.00;76.10;;;;;;4981367;28;20506;-75
2022/07/25 04:53:05;;;;;;;7.70;6.93;;;27.00;76.10;;;;;;5000772;28;20025;-75
2022/07/25 04:55:31;;;;;;;6.90;6.32;;;27.00;75.70;;;;;;5000298;28;20018;-75
2022/07/25 04:57:58;;;;;;;9.15;7.05;;;27.10;75.70;;;;;;4997303;28;20033;-75
2022/07/25 05:00:24;;;;;;;9.75;7.05;;;27.10;75.60;;;;;;5078202;28;20075;-75
2022/07/25 05:02:50;;;;;;;7.25;6.53;;;27.10;75.90;;;;;;5011492;28;20030;-76
2022/07/25 05:05:17;;;;;;;7.47;6.47;;;27.10;75.70;;;;;;5046180;28;20036;-75
2022/07/25 05:07:43;;;;;;;8.55;6.50;;;27.10;75.80;;;;;;5095914;28;20056;-75
2022/07/25 05:10:09;;;;;;;7.30;6.68;;;27.20;75.50;;;;;;5113856;28;20058;-76
2022/07/25 05:12:35;;;;;;;8.82;7.03;;;27.20;75.40;;;;;;5113884;28;20027;-76
2022/07/25 05:15:02;;;;;;;8.60;6.85;;;27.20;75.30;;;;;;5095402;28;20027;-76
2022/07/25 05:17:28;;;;;;;7.65;6.55;;;27.20;75.20;;;;;;5113624;28;20102;-76
2022/07/25 05:19:53;;;;;;;8.48;6.60;;;27.30;75.00;;;;;;5113767;28;20465;-76
2022/07/25 05:22:19;;;;;;;6.70;5.95;;;27.30;75.10;;;;;;5113671;28;20058;-75
2022/07/25 05:24:45;;;;;;;8.82;7.25;;;27.30;75.10;;;;;;5090875;28;20431;-76
2022/07/25 05:27:10;;;;;;;6.10;5.50;;;27.40;75.10;;;;;;5093066;28;20450;-75
2022/07/25 05:29:36;;;;;;;7.32;6.65;;;27.40;74.90;;;;;;5093001;28;20501;-76
2022/07/25 05:32:02;;;;;;;7.30;6.60;;;27.50;75.10;;;;;;5074180;28;20540;-76
2022/07/25 05:34:28;;;;;;;11.18;6.20;;;27.60;75.00;;;;;;5093305;28;20385;-76
2022/07/25 05:36:54;;;;;;;6.80;6.15;;;27.60;74.70;;;;;;5093024;28;20216;-76
2022/07/25 05:39:19;;;;;;;7.18;6.60;;;27.60;74.20;;;;;;5090690;28;20032;-76
2022/07/25 05:41:45;;;;;;;8.48;6.70;;;27.70;74.30;;;;;;5090743;28;20089;-76
2022/07/25 05:44:11;;;;;;;8.55;6.40;;;27.80;74.80;;;;;;5099644;28;20055;-75
2022/07/25 05:46:37;;;;;;;7.28;6.57;;;27.80;74.60;;;;;;5106433;28;20031;-75
2022/07/25 05:49:03;;;;;;;10.63;6.35;;;27.80;75.00;;;;;;5097650;28;20024;-75
2022/07/25 05:51:28;;;;;;;7.28;6.68;;;27.90;74.90;;;;;;5073932;28;20035;-75
2022/07/25 05:53:54;;;;;;;9.43;6.93;;;28.00;74.20;;;;;;5101487;28;20023;-75
2022/07/25 05:56:20;;;;;;;10.82;6.95;;;28.00;73.90;;;;;;5093442;28;20024;-76
2022/07/25 05:58:46;;;;;;;6.50;5.88;;;28.10;74.10;;;;;;5104715;28;20068;-75
2022/07/25 06:01:13;;;;;;;11.27;6.22;;;28.10;74.00;;;;;;5094703;28;20373;-75
2022/07/25 06:03:39;;;;;;;7.55;6.53;;;28.20;73.70;;;;;;5095746;28;20023;-75
2022/07/25 06:06:07;;;;;;;10.70;7.00;;;28.20;73.30;;;;;;5114234;28;20442;-74
2022/07/25 06:08:33;;;;;;;8.98;6.72;;;28.40;73.30;;;;;;5095290;28;20027;-74
2022/07/25 06:10:59;;;;;;;10.90;6.45;;;28.40;73.10;;;;;;5113292;28;20024;-74
2022/07/25 06:13:26;;;;;;;8.00;6.47;;;28.40;73.40;;;;;;5112867;28;20024;-75
2022/07/25 06:15:52;;;;;;;6.82;6.10;;;28.50;74.50;;;;;;5095363;28;20546;-75
2022/07/25 06:18:18;;;;;;;8.63;5.97;;;28.50;75.40;;;;;;5095126;28;20051;-75
2022/07/25 06:20:44;;;;;;;10.55;7.03;;;28.60;77.20;;;;;;5086659;28;20397;-74
2022/07/25 06:23:10;;;;;;;7.57;6.88;;;28.60;78.30;;;;;;5092949;28;20024;-74
2022/07/25 06:25:35;;;;;;;8.07;6.57;;;28.60;78.10;;;;;;5092714;28;20027;-75
2022/07/25 06:28:01;;;;;;;8.10;7.22;;;28.70;78.00;;;;;;5093788;28;20028;-74
2022/07/25 06:30:27;;;;;;;7.32;6.63;;;28.70;78.20;;;;;;5098067;28;20021;-74
2022/07/25 06:32:53;;;;;;;8.48;6.28;;;28.80;79.40;;;;;;5092781;28;20081;-77
2022/07/25 06:35:19;;;;;;;9.52;6.80;;;28.80;79.90;;;;;;5108501;28;20024;-76
2022/07/25 06:37:45;;;;;;;6.90;6.40;;;28.90;80.10;;;;;;5098196;28;20027;-76
2022/07/25 06:40:11;;;;;;;8.35;7.55;;;28.90;79.50;;;;;;5095662;28;20059;-76
2022/07/25 06:42:41;;;;;;;13.20;7.45;;;29.00;77.20;;;;;;5086578;28;20064;-75
2022/07/25 06:45:09;;;;;;;8.77;6.45;;;29.10;75.30;;;;;;5085163;28;20073;-74
2022/07/25 06:47:35;;;;;;;13.70;7.03;;;29.10;71.90;;;;;;5074389;28;20032;-75
2022/07/25 06:50:02;;;;;;;7.85;7.10;;;29.20;73.00;;;;;;5093040;28;20076;-75
2022/07/25 06:52:28;;;;;;;9.60;6.18;;;29.20;73.60;;;;;;5093007;28;20024;-75
2022/07/25 06:54:54;;;;;;;9.27;6.55;;;29.20;73.00;;;;;;5092957;28;20095;-75
2022/07/25 06:57:19;;;;;;;6.15;5.72;;;29.30;71.80;;;;;;5092779;28;20027;-75
2022/07/25 06:59:45;;;;;;;6.45;5.85;;;29.30;70.70;;;;;;5074726;28;20012;-75
2022/07/25 07:02:13;;;;;;;6.50;5.90;;;29.40;70.70;;;;;;5074941;28;20504;-75
2022/07/25 07:04:39;;;;;;;7.05;6.30;;;29.50;70.30;;;;;;5092528;28;20016;-75
2022/07/25 07:07:05;;;;;;;14.95;6.40;;;29.50;69.70;;;;;;5093246;28;20392;-75
2022/07/25 07:09:31;;;;;;;12.77;6.45;;;29.50;69.20;;;;;;5096989;28;20024;-75
2022/07/25 07:11:57;;;;;;;7.20;6.63;;;29.50;68.80;;;;;;5097070;28;20025;-75
2022/07/25 07:14:22;;;;;;;15.20;6.95;;;29.60;68.70;;;;;;5096914;28;20020;-75
2022/07/25 07:16:48;;;;;;;6.93;6.25;;;29.60;68.30;;;;;;5075516;28;20084;-77
2022/07/25 07:19:14;;;;;;;9.13;6.82;;;29.60;69.80;;;;;;5093204;28;20052;-77
2022/07/25 07:21:41;;;;;;;7.80;6.45;;;29.70;67.50;;;;;;5093175;28;20058;-77
2022/07/25 07:24:07;;;;;;;7.18;6.32;;;29.70;67.20;;;;;;5074558;28;20027;-77
2022/07/25 07:26:32;;;;;;;6.90;6.40;;;29.80;67.30;;;;;;5076134;28;20028;-78
2022/07/25 07:28:59;;;;;;;8.50;6.43;;;29.80;67.40;;;;;;5092317;28;20485;-77
2022/07/25 07:31:25;;;;;;;9.63;6.60;;;29.90;66.70;;;;;;5073701;28;20032;-77
2022/07/25 07:33:50;;;;;;;9.73;6.78;;;30.00;66.90;;;;;;5092229;28;20069;-77
2022/07/25 07:36:16;;;;;;;7.03;6.40;;;30.00;66.70;;;;;;5091453;28;20592;-77
2022/07/25 07:38:43;;;;;;;13.70;6.43;;;30.00;65.60;;;;;;5074242;28;20020;-78
2022/07/25 07:41:09;;;;;;;18.67;7.10;;;30.10;66.50;;;;;;5091979;28;20106;-77
2022/07/25 07:43:35;;;;;;;7.13;6.53;;;30.10;66.50;;;;;;5091567;28;20123;-77
2022/07/25 07:46:01;;;;;;;11.95;7.47;;;30.20;66.40;;;;;;5074999;28;20130;-77
2022/07/25 07:48:31;;;;;;;7.22;6.53;;;30.20;64.40;;;;;;5092805;28;20019;-77
2022/07/25 07:50:57;;;;;;;7.38;6.68;;;30.30;62.30;;;;;;5092848;28;20103;-77
2022/07/25 07:55:42;;;;;;;9.48;6.22;;;30.40;62.20;;;;;;5093363;28;20762;-78
2022/07/25 07:56:09;;;;;;;12.93;7.32;;;30.40;63.40;;;;;;5092559;28;20115;-77
2022/07/25 07:58:35;;;;;;;10.05;6.30;;;30.40;64.10;;;;;;5092106;28;20381;-77
2022/07/25 08:01:01;;;;;;;6.43;5.82;;;30.40;62.90;;;;;;5092430;28;20023;-78
2022/07/25 08:03:27;;;;;;;6.97;6.32;;;30.50;63.50;;;;;;5074559;28;20028;-77
2022/07/25 08:05:52;;;;;;;8.52;6.85;;;30.60;62.30;;;;;;5073967;28;20166;-78
2022/07/25 08:08:19;;;;;;;8.27;6.65;;;30.60;62.60;;;;;;5074196;28;20059;-77
2022/07/25 08:10:46;;;;;;;7.32;6.65;;;30.60;62.00;;;;;;5093174;28;20020;-77
2022/07/25 08:13:16;;;;;;;6.95;6.32;;;30.50;62.00;;;;;;5092893;28;20469;-77
2022/07/25 08:15:44;;;;;;;7.28;6.57;;;30.70;59.90;;;;;;5092577;28;20016;-78
2022/07/25 08:18:10;;;;;;;7.18;6.50;;;30.80;59.80;;;;;;5093557;28;20480;-77
2022/07/25 08:20:36;;;;;;;6.80;6.07;;;30.80;59.60;;;;;;5093189;28;20052;-77
2022/07/25 08:23:02;;;;;;;8.98;7.10;;;30.80;59.30;;;;;;5075953;28;20535;-77
2022/07/25 08:25:28;;;;;;;7.38;5.75;;;30.80;60.40;;;;;;5095854;28;20024;-75
2022/07/25 08:27:54;;;;;;;15.20;6.10;;;30.90;59.80;;;;;;5095533;28;20114;-75
2022/07/25 08:30:20;;;;;;;10.10;7.22;;;31.00;58.90;;;;;;5094980;28;20100;-74
2022/07/25 08:32:50;;;;;;;7.22;6.53;;;31.00;59.10;;;;;;5077367;28;20016;-75
2022/07/25 08:35:17;;;;;;;8.90;6.43;;;31.00;58.60;;;;;;5095388;28;20081;-74
2022/07/25 08:37:44;;;;;;;9.25;5.82;;;31.10;57.90;;;;;;5095381;28;20546;-75
2022/07/25 08:40:12;;;;;;;8.15;6.15;;;31.10;57.10;;;;;;5095065;28;20031;-75
2022/07/25 08:42:38;;;;;;;6.32;5.72;;;31.10;56.90;;;;;;5066006;28;20042;-75
2022/07/25 08:45:06;;;;;;;8.75;6.40;;;31.30;57.40;;;;;;5089128;28;20041;-75
2022/07/25 08:47:32;;;;;;;13.77;6.07;;;31.30;57.40;;;;;;5115286;28;20024;-75
2022/07/25 08:49:58;;;;;;;7.63;6.55;;;31.30;57.20;;;;;;5115527;28;20020;-75
2022/07/25 08:52:25;;;;;;;6.47;5.82;;;31.50;56.00;;;;;;5097191;28;20106;-75
2022/07/25 08:54:51;;;;;;;7.75;6.50;;;31.50;55.30;;;;;;5097392;28;20020;-74
2022/07/25 08:57:17;;;;;;;6.63;6.13;;;31.60;56.10;;;;;;5097219;28;20384;-75
2022/07/25 08:59:43;;;;;;;7.30;6.20;;;31.50;55.70;;;;;;5115543;28;20024;-74
2022/07/25 09:02:15;;;;;;;5.85;5.40;;;31.50;55.30;;;;;;5097253;28;20500;-75
2022/07/25 09:04:42;;;;;;;6.82;6.13;;;31.50;55.10;;;;;;5114960;28;20034;-75
2022/07/25 09:07:08;;;;;;;9.25;5.88;;;31.60;54.40;;;;;;5114871;28;20024;-75
2022/07/25 09:09:35;;;;;;;6.15;5.57;;;31.60;55.50;;;;;;5114098;28;20081;-75
2022/07/25 09:12:02;;;;;;;7.28;6.63;;;31.70;55.60;;;;;;5112958;28;20027;-76
2022/07/25 09:14:28;;;;;;;6.78;6.10;;;31.70;55.00;;;;;;5114004;28;20022;-76
2022/07/25 09:16:55;;;;;;;6.68;5.57;;;31.60;54.70;;;;;;5113814;28;20468;-76
2022/07/25 09:19:22;;;;;;;8.05;7.13;;;31.70;53.70;;;;;;5113700;28;20024;-76
2022/07/25 09:22:03;;;;;;;8.85;6.68;;;31.60;54.40;;;;;;5113680;28;20473;-76
2022/07/25 09:24:30;;;;;;;8.35;6.60;;;31.80;55.80;;;;;;5113617;28;20071;-76
2022/07/25 09:26:58;;;;;;;11.00;6.88;;;31.80;56.30;;;;;;5113560;28;20400;-77
2022/07/25 09:29:32;;;;;;;8.95;6.60;;;31.90;55.70;;;;;;5094974;28;20032;-77
2022/07/25 09:31:59;;;;;;;6.82;6.13;;;31.90;53.80;;;;;;5113055;28;20434;-76
2022/07/25 09:34:33;;;;;;;9.23;6.32;;;31.80;54.00;;;;;;5095235;28;20065;-76
2022/07/25 09:37:00;;;;;;;7.95;5.88;;;31.90;54.10;;;;;;5095037;28;20024;-77
2022/07/25 09:39:36;;;;;;;8.75;6.65;;;31.90;55.10;;;;;;5095038;28;20028;-77
2022/07/25 09:42:14;;;;;;;9.55;6.20;;;32.10;54.60;;;;;;5113065;28;20020;-77
2022/07/25 09:44:40;;;;;;;10.50;7.32;;;32.20;54.20;;;;;;5113382;28;20024;-76
2022/07/25 09:47:10;;;;;;;7.40;6.70;;;32.20;54.50;;;;;;5112947;28;20370;-77
2022/07/25 09:49:45;;;;;;;8.65;6.30;;;32.20;53.50;;;;;;5112982;28;20430;-76
2022/07/25 09:52:12;;;;;;;7.10;6.40;;;32.40;54.70;;;;;;5113279;28;20485;-76
2022/07/25 09:54:39;;;;;;;8.57;6.57;;;32.60;55.50;;;;;;5112757;28;20020;-76
2022/07/25 09:57:05;;;;;;;7.10;6.40;;;32.70;54.60;;;;;;5094516;28;20023;-76
2022/07/25 09:59:33;;;;;;;10.23;7.03;;;32.70;54.00;;;;;;5112883;28;20023;-76
2022/07/25 10:02:13;;;;;;;8.15;6.35;;;32.60;51.50;;;;;;5108353;28;20047;-76
2022/07/25 10:04:55;;;;;;;6.32;5.82;;;32.70;52.30;;;;;;5101771;28;20035;-76
2022/07/25 10:07:22;;;;;;;7.07;5.60;;;32.80;52.00;;;;;;5102904;28;20385;-77
2022/07/25 10:09:50;;;;;;;10.15;5.50;;;32.90;50.40;;;;;;5100976;28;20156;-77
2022/07/25 10:12:21;;;;;;;6.60;6.10;;;33.00;48.80;;;;;;5102306;28;20031;-77
2022/07/25 10:15:03;;;;;;;6.90;5.78;;;33.10;48.90;;;;;;5102916;28;20557;-76
2022/07/25 10:17:29;;;;;;;6.60;6.00;;;33.10;48.10;;;;;;5099050;28;20043;-77
2022/07/25 10:19:55;;;;;;;5.22;4.82;;;33.00;48.40;;;;;;5103079;28;20357;-76
2022/07/25 10:22:21;;;;;;;6.97;6.35;;;33.00;48.20;;;;;;5079478;28;20032;-76
2022/07/25 10:24:47;;;;;;;6.20;5.60;;;33.10;48.60;;;;;;5092166;28;20027;-76
2022/07/25 10:27:21;;;;;;;6.32;5.72;;;33.10;47.00;;;;;;5092010;28;20024;-76
2022/07/25 10:29:52;;;;;;;10.65;5.80;;;33.10;46.20;;;;;;5092127;28;20030;-76
2022/07/25 10:32:17;;;;;;;7.78;6.13;;;33.00;46.90;;;;;;5098157;28;20034;-76
2022/07/25 10:34:52;;;;;;;7.03;6.25;;;33.10;48.60;;;;;;5112337;28;20480;-76
2022/07/25 10:37:24;;;;;;;7.25;6.60;;;33.30;49.00;;;;;;5112143;28;20023;-76
2022/07/25 10:39:50;;;;;;;6.65;5.90;;;33.50;48.60;;;;;;5095034;28;20032;-77
2022/07/25 10:42:20;;;;;;;11.23;6.20;;;33.50;48.60;;;;;;5090790;28;20032;-77
2022/07/25 10:44:48;;;;;;;7.53;6.18;;;33.50;49.00;;;;;;5073784;28;20028;-77
2022/07/25 10:47:16;;;;;;;7.50;5.43;;;33.60;48.90;;;;;;5091604;28;20020;-77
2022/07/25 10:49:48;;;;;;;7.10;6.43;;;33.80;48.90;;;;;;5091675;28;20028;-76
2022/07/25 10:52:16;;;;;;;6.75;6.20;;;33.80;48.90;;;;;;5091712;28;20501;-77
2022/07/25 10:54:53;;;;;;;7.07;5.72;;;33.80;46.80;;;;;;5091543;28;20077;-76
2022/07/25 10:57:19;;;;;;;6.60;6.00;;;33.70;47.90;;;;;;5091291;28;20016;-77
2022/07/25 10:59:45;;;;;;;7.35;6.20;;;33.70;48.60;;;;;;5091793;28;20035;-76
2022/07/25 11:02:15;;;;;;;6.22;5.63;;;33.80;48.30;;;;;;5091457;28;20028;-76
2022/07/25 11:04:57;;;;;;;6.75;6.15;;;34.10;48.10;;;;;;5073404;28;20031;-77
2022/07/25 11:07:23;;;;;;;6.32;5.72;;;34.20;46.80;;;;;;4989122;28;20038;-77
2022/07/25 11:09:57;;;;;;;6.65;6.10;;;34.20;47.10;;;;;;5031083;28;20453;-76
2022/07/25 11:12:23;;;;;;;7.32;6.45;;;34.20;46.80;;;;;;5099368;28;20045;-76
2022/07/25 11:14:49;;;;;;;6.18;5.68;;;34.20;46.40;;;;;;5101682;28;20012;-76
2022/07/25 11:17:19;;;;;;;6.95;6.38;;;34.30;47.40;;;;;;5092606;28;20032;-76
2022/07/25 11:20:01;;;;;;;9.30;5.70;;;34.40;48.00;;;;;;5091126;28;20118;-76
2022/07/25 11:22:28;;;;;;;7.53;6.40;;;34.50;48.20;;;;;;5090967;28;20028;-76
2022/07/25 11:24:56;;;;;;;8.07;6.15;;;34.50;48.30;;;;;;5091458;28;20028;-76
2022/07/25 11:27:30;;;;;;;6.70;6.00;;;34.50;47.30;;;;;;5092259;28;20273;-76
2022/07/25 11:30:10;;;;;;;6.82;6.13;;;34.60;47.80;;;;;;5111802;28;20030;-76
2022/07/25 11:32:54;;;;;;;7.15;6.53;;;34.60;48.40;;;;;;5111564;28;20388;-76
2022/07/25 11:35:26;;;;;;;7.45;6.32;;;34.70;48.40;;;;;;5111156;28;20043;-76
2022/07/25 11:37:52;;;;;;;8.63;6.85;;;34.90;48.30;;;;;;5111550;28;20488;-76
2022/07/25 11:40:19;;;;;;;7.90;5.72;;;34.90;47.60;;;;;;5111535;28;20430;-76
2022/07/25 11:42:48;;;;;;;7.63;6.25;;;34.80;47.20;;;;;;5092530;28;20079;-76
2022/07/25 11:45:27;;;;;;;6.75;6.00;;;35.00;49.10;;;;;;5111422;28;20038;-76
2022/07/25 11:48:11;;;;;;;5.70;5.20;;;35.10;48.70;;;;;;5083410;28;20020;-76
2022/07/25 11:50:39;;;;;;;5.97;5.47;;;35.30;47.30;;;;;;5080484;28;20026;-76
2022/07/25 11:53:13;;;;;;;7.63;6.03;;;35.40;46.80;;;;;;5082211;28;20377;-76
2022/07/25 11:55:41;;;;;;;6.85;6.25;;;35.40;47.30;;;;;;5103692;28;20361;-76
2022/07/25 11:58:08;;;;;;;6.47;5.85;;;35.50;47.20;;;;;;5100643;28;20039;-76
2022/07/25 12:00:47;;;;;;;7.63;6.50;;;35.50;46.40;;;;;;5103944;28;20026;-76
2022/07/25 12:03:15;;;;;;;7.00;6.38;;;35.50;46.70;;;;;;5094994;28;20037;-76
2022/07/25 12:05:41;;;;;;;9.02;6.40;;;35.60;47.70;;;;;;5094904;28;20099;-76
2022/07/25 12:08:09;;;;;;;9.38;6.75;;;35.80;47.40;;;;;;5093466;28;20028;-76
2022/07/25 12:10:37;;;;;;;7.88;6.30;;;35.90;47.00;;;;;;5094413;28;20020;-76
2022/07/25 12:13:03;;;;;;;6.68;6.18;;;35.90;46.90;;;;;;5075744;28;20065;-76
2022/07/25 12:15:32;;;;;;;9.35;7.10;;;35.90;47.10;;;;;;5093632;28;20016;-76
2022/07/25 12:17:58;;;;;;;8.88;6.40;;;35.90;47.00;;;;;;5094629;28;20398;-76
2022/07/25 12:20:26;;;;;;;7.40;6.60;;;36.10;47.30;;;;;;5076596;28;20149;-75
2022/07/25 12:22:55;;;;;;;8.43;6.68;;;36.20;47.30;;;;;;5093814;28;20039;-76
2022/07/25 12:25:21;;;;;;;8.45;6.65;;;36.30;46.90;;;;;;5099507;28;20381;-76
2022/07/25 12:27:47;;;;;;;7.05;6.45;;;36.50;46.10;;;;;;5114580;28;20027;-76
2022/07/25 12:30:14;;;;;;;6.85;6.20;;;36.50;46.00;;;;;;5114707;28;20088;-76
2022/07/25 12:32:40;;;;;;;7.07;6.13;;;36.40;45.60;;;;;;5114842;28;20043;-75
2022/07/25 12:35:08;;;;;;;7.82;7.00;;;36.20;45.90;;;;;;5090453;28;20055;-76
2022/07/25 12:37:34;;;;;;;8.05;6.88;;;36.40;46.20;;;;;;5102078;28;20020;-76
2022/07/25 12:40:00;;;;;;;7.40;6.80;;;36.40;44.80;;;;;;5102760;28;20048;-76
2022/07/25 12:42:27;;;;;;;7.53;6.82;;;36.40;45.00;;;;;;5099725;28;20040;-76
2022/07/25 12:44:54;;;;;;;14.32;6.78;;;36.50;44.90;;;;;;5078960;28;20469;-76
2022/07/25 12:47:24;;;;;;;7.97;6.35;;;36.60;45.40;;;;;;5073777;28;20024;-76
2022/07/25 12:49:50;;;;;;;7.50;6.90;;;36.70;45.10;;;;;;5072985;28;20054;-76